createdAt,value
2023-04-27T00:02:20.108Z,3.60
2023-04-27T00:04:47.625Z,3.65
2023-04-27T00:07:14.955Z,3.53
2023-04-27T00:09:41.903Z,3.67
2023-04-27T00:12:09.061Z,3.75
2023-04-27T00:14:36.164Z,3.47
2023-04-27T00:17:03.126Z,3.63
2023-04-27T00:19:30.920Z,3.67
2023-04-27T00:22:00.484Z,3.55
2023-04-27T00:24:27.684Z,3.50
2023-04-27T00:26:54.906Z,3.95
2023-04-27T00:29:21.892Z,4.22
2023-04-27T00:31:48.945Z,3.50
2023-04-27T00:34:16.060Z,3.85
2023-04-27T00:36:43.025Z,4.00
2023-04-27T00:39:10.020Z,3.50
2023-04-27T00:41:39.881Z,4.40
2023-04-27T00:44:06.941Z,3.67
2023-04-27T00:46:35.110Z,3.45
2023-04-27T00:49:02.542Z,3.55
2023-04-27T00:51:31.513Z,3.75
2023-04-27T00:53:59.098Z,4.03
2023-04-27T00:56:26.246Z,3.60
2023-04-27T00:58:53.211Z,3.38
2023-04-27T01:01:21.654Z,3.55
2023-04-27T01:03:49.202Z,3.25
2023-04-27T01:06:16.371Z,3.38
2023-04-27T01:08:44.544Z,4.35
2023-04-27T01:11:11.506Z,3.75
2023-04-27T01:13:42.648Z,3.70
2023-04-27T01:16:09.980Z,3.97
2023-04-27T01:18:40.862Z,3.80
2023-04-27T01:21:08.378Z,3.78
2023-04-27T01:23:35.542Z,3.45
2023-04-27T01:26:04.015Z,4.18
2023-04-27T01:28:31.633Z,3.72
2023-04-27T01:31:00.795Z,3.67
2023-04-27T01:33:27.767Z,4.20
2023-04-27T01:35:54.794Z,4.03
2023-04-27T01:38:21.871Z,4.40
2023-04-27T01:40:48.861Z,4.15
2023-04-27T01:43:16.039Z,4.43
2023-04-27T01:45:43.159Z,4.50
2023-04-27T01:48:10.257Z,4.63
2023-04-27T01:50:37.385Z,5.10
2023-04-27T01:53:06.886Z,5.25
2023-04-27T01:55:34.284Z,5.03
2023-04-27T01:58:02.053Z,4.75
2023-04-27T02:00:29.193Z,4.20
2023-04-27T02:02:57.734Z,4.60
2023-04-27T02:05:24.955Z,4.35
2023-04-27T02:07:53.550Z,4.53
2023-04-27T02:10:22.681Z,4.38
2023-04-27T02:12:49.709Z,4.43
2023-04-27T02:15:16.884Z,4.40
2023-04-27T02:17:44.311Z,4.22
2023-04-27T02:20:13.123Z,3.88
2023-04-27T02:22:45.307Z,3.88
2023-04-27T02:25:13.665Z,4.50
2023-04-27T02:27:42.846Z,3.85
2023-04-27T02:30:11.926Z,4.32
2023-04-27T02:32:40.113Z,4.57
2023-04-27T02:35:08.120Z,4.13
2023-04-27T02:37:35.520Z,4.20
2023-04-27T02:40:06.693Z,4.10
2023-04-27T02:42:33.885Z,4.35
2023-04-27T02:45:00.874Z,4.05
2023-04-27T02:47:27.856Z,4.05
2023-04-27T02:49:54.890Z,4.32
2023-04-27T02:52:21.869Z,4.45
2023-04-27T02:54:48.875Z,4.30
2023-04-27T02:57:15.989Z,4.28
2023-04-27T02:59:43.002Z,4.13
2023-04-27T03:02:10.092Z,3.70
2023-04-27T03:04:38.814Z,3.90
2023-04-27T03:07:06.526Z,4.32
2023-04-27T03:09:34.464Z,4.25
2023-04-27T03:12:01.456Z,3.65
2023-04-27T03:14:28.468Z,4.20
2023-04-27T03:16:57.580Z,4.05
2023-04-27T03:19:25.116Z,4.07
2023-04-27T03:21:52.370Z,3.80
2023-04-27T03:24:19.390Z,4.85
2023-04-27T03:26:46.782Z,4.68
2023-04-27T03:29:13.964Z,4.60
2023-04-27T03:31:41.158Z,4.25
2023-04-27T03:34:08.143Z,4.15
2023-04-27T03:36:35.165Z,4.43
2023-04-27T03:39:02.189Z,4.10
2023-04-27T03:41:29.691Z,4.03
2023-04-27T03:43:56.740Z,3.85
2023-04-27T03:46:23.814Z,4.57
2023-04-27T03:48:50.949Z,4.70
2023-04-27T03:51:18.535Z,4.03
2023-04-27T03:53:47.057Z,4.20
2023-04-27T03:56:14.963Z,4.60
2023-04-27T03:58:42.043Z,4.20
2023-04-27T04:01:14.920Z,4.05
2023-04-27T04:03:42.130Z,3.58
2023-04-27T04:06:09.506Z,4.03
2023-04-27T04:08:36.707Z,3.83
2023-04-27T04:11:04.099Z,3.75
2023-04-27T04:13:31.786Z,5.03
2023-04-27T04:16:09.748Z,4.40
2023-04-27T04:18:37.134Z,4.38
2023-04-27T04:21:06.164Z,4.32
2023-04-27T04:23:33.219Z,3.92
2023-04-27T04:26:00.464Z,4.05
2023-04-27T04:28:31.690Z,4.88
2023-04-27T04:31:01.227Z,4.40
2023-04-27T04:33:28.333Z,4.30
2023-04-27T04:35:55.917Z,4.72
2023-04-27T04:38:24.028Z,4.00
2023-04-27T04:40:53.132Z,4.00
2023-04-27T04:43:22.324Z,4.00
2023-04-27T04:45:52.578Z,4.60
2023-04-27T04:48:20.490Z,4.22
2023-04-27T04:50:47.806Z,4.63
2023-04-27T04:53:15.033Z,4.80
2023-04-27T04:55:42.727Z,4.40
2023-04-27T04:58:10.498Z,4.28
2023-04-27T05:00:37.513Z,4.05
2023-04-27T05:03:04.678Z,4.55
2023-04-27T05:05:31.862Z,4.00
2023-04-27T05:07:58.874Z,4.25
2023-04-27T05:10:25.914Z,6.22
2023-04-27T05:12:52.861Z,5.47
2023-04-27T05:15:19.992Z,6.40
2023-04-27T05:17:46.991Z,4.95
2023-04-27T05:20:14.178Z,4.28
2023-04-27T05:22:41.251Z,4.35
2023-04-27T05:25:08.744Z,5.25
2023-04-27T05:27:35.853Z,4.47
2023-04-27T05:30:03.459Z,4.60
2023-04-27T05:32:30.929Z,4.85
2023-04-27T05:34:57.996Z,4.82
2023-04-27T05:37:25.045Z,4.43
2023-04-27T05:39:55.368Z,4.60
2023-04-27T05:42:22.937Z,4.60
2023-04-27T05:44:50.892Z,4.38
2023-04-27T05:47:18.454Z,4.47
2023-04-27T05:49:52.291Z,4.35
2023-04-27T05:52:20.932Z,4.38
2023-04-27T05:54:50.055Z,4.13
2023-04-27T05:57:20.781Z,5.03
2023-04-27T05:59:49.289Z,4.10
2023-04-27T06:02:17.697Z,4.43
2023-04-27T06:04:45.838Z,4.82
2023-04-27T06:07:16.376Z,4.70
2023-04-27T06:09:44.335Z,5.00
2023-04-27T06:12:12.280Z,5.05
2023-04-27T06:14:40.098Z,4.47
2023-04-27T06:17:07.872Z,5.10
2023-04-27T06:19:35.930Z,5.63
2023-04-27T06:22:04.622Z,5.10
2023-04-27T06:24:32.595Z,5.20
2023-04-27T06:27:03.215Z,5.45
2023-04-27T06:29:30.912Z,4.47
2023-04-27T06:31:58.643Z,4.50
2023-04-27T06:34:26.632Z,4.40
2023-04-27T06:36:54.605Z,4.30
2023-04-27T06:39:22.473Z,4.80
2023-04-27T06:41:53.454Z,5.43
2023-04-27T06:44:24.326Z,5.50
2023-04-27T06:46:52.075Z,5.13
2023-04-27T06:49:19.888Z,5.53
2023-04-27T06:51:48.658Z,5.10
2023-04-27T06:54:16.961Z,4.82
2023-04-27T06:56:47.773Z,4.85
2023-04-27T06:59:15.803Z,4.72
2023-04-27T07:01:43.721Z,5.20
2023-04-27T07:04:11.517Z,5.47
2023-04-27T07:06:42.648Z,4.90
2023-04-27T07:09:26.686Z,4.90
2023-04-27T07:11:56.387Z,5.78
2023-04-27T07:14:24.486Z,5.13
2023-04-27T07:16:52.367Z,4.90
2023-04-27T07:19:20.160Z,5.25
2023-04-27T07:21:48.256Z,4.68
2023-04-27T07:24:15.975Z,4.53
2023-04-27T07:26:46.749Z,4.90
2023-04-27T07:29:26.657Z,4.97
2023-04-27T07:31:59.044Z,5.07
2023-04-27T07:34:29.203Z,5.45
2023-04-27T07:37:00.795Z,4.68
2023-04-27T07:39:28.725Z,4.97
2023-04-27T07:41:56.966Z,4.50
2023-04-27T07:44:24.755Z,4.90
2023-04-27T07:46:58.906Z,4.72
2023-04-27T07:49:26.921Z,4.93
2023-04-27T07:51:54.540Z,4.35
2023-04-27T07:54:22.272Z,4.30
2023-04-27T07:56:49.957Z,4.95
2023-04-27T07:59:20.349Z,4.53
2023-04-27T08:04:19.429Z,4.55
2023-04-27T08:06:47.963Z,4.68
2023-04-27T08:09:16.200Z,4.97
2023-04-27T08:11:47.300Z,4.40
2023-04-27T08:14:18.202Z,4.80
2023-04-27T08:16:45.920Z,5.20
2023-04-27T08:19:13.875Z,5.05
2023-04-27T08:21:41.654Z,4.55
2023-04-27T08:24:09.448Z,5.25
2023-04-27T08:26:37.196Z,5.00
2023-04-27T08:29:15.523Z,4.10
2023-04-27T08:31:52.953Z,4.78
2023-04-27T08:36:49.677Z,5.38
2023-04-27T08:39:18.651Z,5.13
2023-04-27T08:41:46.820Z,5.45
2023-04-27T08:44:17.477Z,4.72
2023-04-27T08:46:45.458Z,4.88
2023-04-27T08:49:15.981Z,4.78
2023-04-27T08:51:45.251Z,4.80
2023-04-27T08:54:13.117Z,4.93
2023-04-27T08:56:43.614Z,4.47
2023-04-27T09:01:49.494Z,5.40
2023-04-27T09:04:18.604Z,4.70
2023-04-27T09:06:50.246Z,4.68
2023-04-27T09:09:24.895Z,4.90
2023-04-27T09:11:55.868Z,5.22
2023-04-27T09:14:25.962Z,5.20
2023-04-27T09:16:58.408Z,5.20
2023-04-27T09:19:30.480Z,4.90
2023-04-27T09:22:09.699Z,5.63
2023-04-27T09:24:52.954Z,4.80
2023-04-27T09:27:22.435Z,4.72
2023-04-27T09:29:49.642Z,4.80
2023-04-27T09:32:23.393Z,4.65
2023-04-27T09:34:51.351Z,4.90
2023-04-27T09:37:19.947Z,4.72
2023-04-27T09:39:48.740Z,5.43
2023-04-27T09:42:16.976Z,4.90
2023-04-27T09:44:44.714Z,5.13
2023-04-27T09:47:15.884Z,5.22
2023-04-27T09:49:43.836Z,5.10
2023-04-27T09:52:14.754Z,5.18
2023-04-27T09:54:42.873Z,4.68
2023-04-27T09:57:28.987Z,5.13
2023-04-27T10:00:11.315Z,5.28
2023-04-27T10:02:55.768Z,4.80
2023-04-27T10:05:56.747Z,5.38
2023-04-27T10:08:23.991Z,4.90
2023-04-27T10:10:53.909Z,4.45
2023-04-27T10:13:26.752Z,5.38
2023-04-27T10:15:54.776Z,5.00
2023-04-27T10:18:36.008Z,4.70
2023-04-27T10:21:11.521Z,4.30
2023-04-27T10:23:52.967Z,5.10
2023-04-27T10:26:28.542Z,4.45
2023-04-27T10:29:08.072Z,5.53
2023-04-27T10:31:36.553Z,5.00
2023-04-27T10:34:11.980Z,4.43
2023-04-27T10:36:41.422Z,4.28
2023-04-27T10:39:17.091Z,4.80
2023-04-27T10:41:56.702Z,5.55
2023-04-27T10:44:29.093Z,5.13
2023-04-27T10:47:02.899Z,5.45
2023-04-27T10:49:31.854Z,5.10
2023-04-27T10:52:00.978Z,5.30
2023-04-27T10:54:29.862Z,6.03
2023-04-27T10:57:11.850Z,5.40
2023-04-27T10:59:50.026Z,4.65
2023-04-27T11:02:17.865Z,4.85
2023-04-27T11:04:45.993Z,5.25
2023-04-27T11:07:23.381Z,5.20
2023-04-27T11:09:50.515Z,5.35
2023-04-27T11:12:17.588Z,5.95
2023-04-27T11:14:44.780Z,5.18
2023-04-27T11:17:13.700Z,5.00
2023-04-27T11:19:50.263Z,5.07
2023-04-27T11:22:17.881Z,4.47
2023-04-27T11:24:52.704Z,5.07
2023-04-27T11:27:22.388Z,5.15
2023-04-27T11:29:50.275Z,5.20
2023-04-27T11:32:21.838Z,5.32
2023-04-27T11:34:54.028Z,6.13
2023-04-27T11:37:28.068Z,5.78
2023-04-27T11:39:57.680Z,5.65
2023-04-27T11:42:28.757Z,5.65
2023-04-27T11:45:08.189Z,5.28
2023-04-27T11:47:36.217Z,5.47
2023-04-27T11:50:06.592Z,4.97
2023-04-27T11:55:05.422Z,5.50
2023-04-27T11:57:34.871Z,5.20
2023-04-27T12:00:11.583Z,4.57
2023-04-27T12:02:44.011Z,5.05
2023-04-27T12:05:13.800Z,5.13
2023-04-27T12:07:41.671Z,5.25
2023-04-27T12:10:09.349Z,4.97
2023-04-27T12:12:36.709Z,5.18
2023-04-27T12:15:04.033Z,5.07
2023-04-27T12:17:31.957Z,4.85
2023-04-27T12:19:59.497Z,5.30
2023-04-27T12:22:27.369Z,4.82
2023-04-27T12:24:55.125Z,4.60
2023-04-27T12:27:22.808Z,4.60
2023-04-27T12:29:50.678Z,4.93
2023-04-27T12:32:18.475Z,4.93
2023-04-27T12:34:47.231Z,5.07
2023-04-27T12:37:15.106Z,4.72
2023-04-27T12:39:42.962Z,4.82
2023-04-27T12:42:10.797Z,4.57
2023-04-27T12:44:38.573Z,4.15
2023-04-27T12:47:06.513Z,4.43
2023-04-27T12:49:34.514Z,4.25
2023-04-27T12:52:02.249Z,4.82
2023-04-27T12:54:29.878Z,4.65
2023-04-27T12:57:03.990Z,4.57
2023-04-27T12:59:40.697Z,4.03
2023-04-27T13:02:10.180Z,4.40
2023-04-27T13:04:38.129Z,4.27
2023-04-27T13:07:07.008Z,4.22
2023-04-27T13:09:34.823Z,4.50
2023-04-27T13:12:02.752Z,4.03
2023-04-27T13:14:32.584Z,4.18
2023-04-27T13:17:00.448Z,4.78
2023-04-27T13:19:28.283Z,4.50
2023-04-27T13:21:56.021Z,4.57
2023-04-27T13:24:25.079Z,4.15
2023-04-27T13:26:53.125Z,4.07
2023-04-27T13:29:21.354Z,3.97
2023-04-27T13:31:49.720Z,4.28
2023-04-27T13:34:19.336Z,3.33
2023-04-27T13:36:49.379Z,3.92
2023-04-27T13:41:44.279Z,3.22
2023-04-27T13:44:11.331Z,3.10
2023-04-27T13:46:38.908Z,3.75
2023-04-27T13:49:09.580Z,3.47
2023-04-27T13:51:37.374Z,3.72
2023-04-27T13:54:05.601Z,3.30
2023-04-27T13:56:32.808Z,3.00
2023-04-27T13:59:00.824Z,3.03
2023-04-27T14:01:29.416Z,2.92
2023-04-27T14:03:58.038Z,3.00
2023-04-27T14:06:27.807Z,3.30
2023-04-27T14:08:55.793Z,3.42
2023-04-27T14:11:26.765Z,3.67
2023-04-27T14:13:54.622Z,3.10
2023-04-27T14:16:28.224Z,3.30
2023-04-27T14:18:58.781Z,3.78
2023-04-27T14:21:26.755Z,3.22
2023-04-27T14:23:54.437Z,3.33
2023-04-27T14:26:22.573Z,3.10
2023-04-27T14:28:50.248Z,3.40
2023-04-27T14:31:18.726Z,2.95
2023-04-27T14:33:52.485Z,2.97
2023-04-27T14:36:20.121Z,3.25
2023-04-27T14:38:47.891Z,3.00
2023-04-27T14:41:15.685Z,2.78
2023-04-27T14:43:45.198Z,3.38
2023-04-27T14:48:47.959Z,2.67
2023-04-27T14:51:16.421Z,2.70
2023-04-27T14:53:44.724Z,3.00
2023-04-27T14:56:12.931Z,2.80
2023-04-27T14:58:41.539Z,2.78
2023-04-27T15:01:09.595Z,2.90
2023-04-27T15:03:37.769Z,2.80
2023-04-27T15:06:06.293Z,2.65
2023-04-27T15:08:34.551Z,3.25
2023-04-27T15:11:04.434Z,3.05
2023-04-27T15:13:32.237Z,2.83
2023-04-27T15:16:01.560Z,3.08
2023-04-27T15:18:29.370Z,2.83
2023-04-27T15:20:58.766Z,2.75
2023-04-27T15:23:28.257Z,2.90
2023-04-27T15:25:58.197Z,2.70
2023-04-27T15:28:26.308Z,2.60
2023-04-27T15:30:54.218Z,3.22
2023-04-27T15:33:22.184Z,2.90
2023-04-27T15:35:50.610Z,2.72
2023-04-27T15:38:18.214Z,2.42
2023-04-27T15:40:45.827Z,3.55
2023-04-27T15:43:13.715Z,2.88
2023-04-27T15:45:42.238Z,2.78
2023-04-27T15:48:12.874Z,2.80
2023-04-27T15:50:45.114Z,2.50
2023-04-27T15:53:13.329Z,3.05
2023-04-27T15:55:44.151Z,2.67
2023-04-27T15:58:11.631Z,2.65
2023-04-27T16:00:42.552Z,2.92
2023-04-27T16:03:11.313Z,2.70
2023-04-27T16:05:39.327Z,2.80
2023-04-27T16:08:09.448Z,2.63
2023-04-27T16:10:37.297Z,2.58
2023-04-27T16:13:05.061Z,2.85
2023-04-27T16:15:32.360Z,2.67
2023-04-27T16:17:59.911Z,2.65
2023-04-27T16:20:29.153Z,2.80
2023-04-27T16:22:56.766Z,2.92
2023-04-27T16:25:24.467Z,3.08
2023-04-27T16:27:52.624Z,3.20
2023-04-27T16:30:20.469Z,3.38
2023-04-27T16:32:48.492Z,3.28
2023-04-27T16:35:15.882Z,2.80
2023-04-27T16:37:51.243Z,2.67
2023-04-27T16:40:19.070Z,2.88
2023-04-27T16:42:47.651Z,2.65
2023-04-27T16:45:15.724Z,3.50
2023-04-27T16:47:45.430Z,2.85
2023-04-27T16:50:12.832Z,2.75
2023-04-27T16:52:40.400Z,2.90
2023-04-27T16:55:08.432Z,2.63
2023-04-27T17:00:18.214Z,2.97
2023-04-27T17:02:45.816Z,2.67
2023-04-27T17:05:16.396Z,2.70
2023-04-27T17:07:47.870Z,2.95
2023-04-27T17:10:17.135Z,2.85
2023-04-27T17:12:49.768Z,2.97
2023-04-27T17:15:29.071Z,2.75
2023-04-27T17:17:57.026Z,2.80
2023-04-27T17:20:25.026Z,3.05
2023-04-27T17:22:52.726Z,2.90
2023-04-27T17:25:20.436Z,2.42
2023-04-27T17:27:48.170Z,2.90
2023-04-27T17:30:15.701Z,2.65
2023-04-27T17:32:57.413Z,3.10
2023-04-27T17:35:25.429Z,2.72
2023-04-27T17:37:54.174Z,2.67
2023-04-27T17:40:23.308Z,3.22
2023-04-27T17:42:51.118Z,3.70
2023-04-27T17:45:18.869Z,3.50
2023-04-27T17:47:46.403Z,3.30
2023-04-27T17:50:14.960Z,3.33
2023-04-27T17:52:42.072Z,2.92
2023-04-27T17:55:09.816Z,2.88
2023-04-27T17:57:37.680Z,3.13
2023-04-27T18:00:05.363Z,3.00
2023-04-27T18:02:37.608Z,3.03
2023-04-27T18:05:06.636Z,5.35
2023-04-27T18:07:38.074Z,3.22
2023-04-27T18:10:06.758Z,4.63
2023-04-27T18:12:34.559Z,4.68
2023-04-27T18:15:04.389Z,5.53
2023-04-27T18:17:32.815Z,5.30
2023-04-27T18:20:07.485Z,4.90
2023-04-27T18:22:39.578Z,5.25
2023-04-27T18:25:08.413Z,5.10
2023-04-27T18:27:37.977Z,4.78
2023-04-27T18:30:08.944Z,5.07
2023-04-27T18:32:36.711Z,5.55
2023-04-27T18:35:06.082Z,5.35
2023-04-27T18:37:34.064Z,5.28
2023-04-27T18:40:01.767Z,5.50
2023-04-27T18:42:29.714Z,6.50
2023-04-27T18:45:01.000Z,6.32
2023-04-27T18:47:28.376Z,5.75
2023-04-27T18:49:55.927Z,5.75
2023-04-27T18:52:23.842Z,5.40
2023-04-27T18:54:51.459Z,5.53
2023-04-27T18:57:19.377Z,6.70
2023-04-27T18:59:47.081Z,6.40
2023-04-27T19:02:15.341Z,7.03
2023-04-27T19:04:48.954Z,6.85
2023-04-27T19:07:28.213Z,6.97
2023-04-27T19:09:59.364Z,7.47
2023-04-27T19:12:31.862Z,6.53
2023-04-27T19:14:59.750Z,6.35
2023-04-27T19:17:27.917Z,6.78
2023-04-27T19:19:56.500Z,6.80
2023-04-27T19:22:24.480Z,6.85
2023-04-27T19:24:52.168Z,7.07
2023-04-27T19:27:22.887Z,6.88
2023-04-27T19:29:58.870Z,6.32
2023-04-27T19:32:28.103Z,6.82
2023-04-27T19:35:13.403Z,6.53
2023-04-27T19:37:43.138Z,6.85
2023-04-27T19:40:17.800Z,6.60
2023-04-27T19:42:59.724Z,7.13
2023-04-27T19:45:27.562Z,6.53
2023-04-27T19:48:09.671Z,5.95
2023-04-27T19:50:46.024Z,6.00
2023-04-27T19:53:57.099Z,6.88
2023-04-27T20:00:24.129Z,6.80
2023-04-27T20:20:25.426Z,6.47
2023-04-27T20:22:52.513Z,6.30
2023-04-27T20:25:20.308Z,5.50
2023-04-27T20:27:47.442Z,6.07
2023-04-27T20:30:14.512Z,6.40
2023-04-27T20:32:41.625Z,6.72
2023-04-27T20:35:12.070Z,6.43
2023-04-27T20:40:08.296Z,5.68
2023-04-27T20:42:36.152Z,6.53
2023-04-27T20:45:05.603Z,6.60
2023-04-27T20:47:32.645Z,5.68
2023-04-27T20:49:59.826Z,6.15
2023-04-27T20:52:30.553Z,5.55
2023-04-27T20:54:58.975Z,6.40
2023-04-27T20:57:25.966Z,6.28
2023-04-27T20:59:52.948Z,6.13
2023-04-27T21:02:20.383Z,6.72
2023-04-27T21:04:47.498Z,6.45
2023-04-27T21:07:14.483Z,6.40
2023-04-27T21:09:41.817Z,7.30
2023-04-27T21:12:09.127Z,7.05
2023-04-27T21:14:36.531Z,6.43
2023-04-27T21:17:03.825Z,6.43
2023-04-27T21:19:31.176Z,6.45
2023-04-27T21:21:58.105Z,6.65
2023-04-27T21:24:25.328Z,6.13
2023-04-27T21:26:52.615Z,6.90
2023-04-27T21:29:19.645Z,6.75
2023-04-27T21:31:47.009Z,6.72
2023-04-27T21:34:14.270Z,6.88
2023-04-27T21:36:41.366Z,6.57
2023-04-27T21:39:08.382Z,7.28
2023-04-27T21:41:37.297Z,6.82
2023-04-27T21:44:04.459Z,6.63
2023-04-27T21:46:31.787Z,7.13
2023-04-27T21:48:58.804Z,6.40
2023-04-27T21:51:25.828Z,6.22
2023-04-27T21:53:52.813Z,6.53
2023-04-27T21:56:20.052Z,7.22
2023-04-27T21:58:47.267Z,6.95
2023-04-27T22:01:14.607Z,6.57
2023-04-27T22:03:42.227Z,6.25
2023-04-27T22:06:09.527Z,6.85
2023-04-27T22:08:36.590Z,6.32
2023-04-27T22:11:03.630Z,6.53
2023-04-27T22:13:30.803Z,5.80
2023-04-27T22:15:57.889Z,6.35
2023-04-27T22:18:24.961Z,6.35
2023-04-27T22:20:52.130Z,7.25
2023-04-27T22:23:19.137Z,6.68
2023-04-27T22:25:46.668Z,6.28
2023-04-27T22:28:13.697Z,6.07
2023-04-27T22:30:42.285Z,6.63
2023-04-27T22:33:09.946Z,7.35
2023-04-27T22:35:37.704Z,7.65
2023-04-27T22:38:04.866Z,7.20
2023-04-27T22:40:32.173Z,7.10
2023-04-27T22:42:59.217Z,7.22
2023-04-27T22:45:26.421Z,7.30
2023-04-27T22:47:54.173Z,6.32
2023-04-27T22:50:21.546Z,6.78
2023-04-27T22:52:48.615Z,6.38
2023-04-27T22:55:16.303Z,6.90
2023-04-27T22:57:44.564Z,6.75
2023-04-27T23:00:12.524Z,6.80
2023-04-27T23:02:40.547Z,6.80
2023-04-27T23:05:08.600Z,7.32
2023-04-27T23:07:36.425Z,6.32
2023-04-27T23:10:03.752Z,6.72
2023-04-27T23:12:31.504Z,6.40
2023-04-27T23:14:59.479Z,6.45
2023-04-27T23:17:30.821Z,7.20
2023-04-27T23:19:59.113Z,6.65
2023-04-27T23:22:26.687Z,6.32
2023-04-27T23:24:54.453Z,6.05
2023-04-27T23:27:22.673Z,7.05
2023-04-27T23:29:49.654Z,6.45
2023-04-27T23:32:16.978Z,6.28
2023-04-27T23:34:44.031Z,5.80
2023-04-27T23:37:11.035Z,6.45
2023-04-27T23:39:38.498Z,6.35
2023-04-27T23:42:06.018Z,6.15
2023-04-27T23:44:33.048Z,6.00
2023-04-27T23:47:00.061Z,6.25
2023-04-27T23:49:27.055Z,5.85
2023-04-27T23:51:54.052Z,6.13
2023-04-27T23:54:21.056Z,6.45
2023-04-27T23:56:49.897Z,6.40
2023-04-27T23:59:17.341Z,6.20
